createdAt,value
2022-12-09T00:00:28.109Z,42.06
2022-12-09T00:01:28.269Z,48.82
2022-12-09T00:02:28.381Z,39.96
2022-12-09T00:03:28.251Z,47.21
2022-12-09T00:04:28.374Z,38.19
2022-12-09T00:05:28.074Z,37.22
2022-12-09T00:06:28.124Z,36.25
2022-12-09T00:07:28.049Z,35.61
2022-12-09T00:08:28.149Z,38.03
2022-12-09T00:09:28.328Z,36.74
2022-12-09T00:10:28.061Z,38.03
2022-12-09T00:11:28.015Z,36.25
2022-12-09T00:12:28.042Z,35.29
2022-12-09T00:13:27.997Z,36.42
2022-12-09T00:14:28.015Z,35.61
2022-12-09T00:15:28.054Z,37.54
2022-12-09T00:16:28.242Z,51.08
2022-12-09T00:17:28.226Z,54.79
2022-12-09T00:18:27.967Z,42.22
2022-12-09T00:19:27.983Z,37.71
2022-12-09T00:20:28.109Z,35.93
2022-12-09T00:21:28.141Z,40.28
2022-12-09T00:22:27.948Z,43.02
2022-12-09T00:23:27.939Z,38.03
2022-12-09T00:24:28.130Z,37.06
2022-12-09T00:25:28.130Z,37.71
2022-12-09T00:26:28.065Z,35.61
2022-12-09T00:27:27.890Z,37.06
2022-12-09T00:28:28.062Z,36.42
2022-12-09T00:29:27.914Z,36.58
2022-12-09T00:30:28.133Z,36.25
2022-12-09T00:31:27.909Z,37.22
2022-12-09T00:32:27.881Z,37.87
2022-12-09T00:33:27.841Z,49.31
2022-12-09T00:34:28.005Z,48.34
2022-12-09T00:35:28.032Z,40.28
2022-12-09T00:36:27.819Z,40.77
2022-12-09T00:37:27.804Z,37.22
2022-12-09T00:38:27.954Z,35.45
2022-12-09T00:39:27.895Z,37.06
2022-12-09T00:40:27.782Z,40.93
2022-12-09T00:41:27.871Z,36.42
2022-12-09T00:42:28.035Z,37.06
2022-12-09T00:43:27.760Z,35.77
2022-12-09T00:44:27.938Z,35.93
2022-12-09T00:45:27.880Z,37.06
2022-12-09T00:46:27.819Z,35.77
2022-12-09T00:47:27.786Z,35.61
2022-12-09T00:48:27.771Z,36.09
2022-12-09T00:49:27.732Z,36.09
2022-12-09T00:50:27.808Z,37.54
2022-12-09T00:51:27.692Z,37.71
2022-12-09T00:52:27.820Z,47.37
2022-12-09T00:53:27.674Z,38.67
2022-12-09T00:54:27.727Z,37.54
2022-12-09T00:55:27.732Z,46.73
2022-12-09T00:56:27.826Z,36.74
2022-12-09T00:57:27.815Z,37.06
2022-12-09T00:58:27.684Z,36.42
2022-12-09T00:59:27.647Z,37.06
2022-12-09T01:00:27.715Z,56.07
2022-12-09T01:01:27.878Z,36.90
2022-12-09T01:02:27.763Z,36.25
2022-12-09T01:03:27.797Z,35.61
2022-12-09T01:04:27.955Z,36.25
2022-12-09T01:05:27.635Z,35.93
2022-12-09T01:06:27.676Z,37.38
2022-12-09T01:07:27.561Z,36.74
2022-12-09T01:08:27.860Z,36.42
2022-12-09T01:09:27.658Z,37.54
2022-12-09T01:10:27.550Z,37.54
2022-12-09T01:11:27.816Z,36.09
2022-12-09T01:12:27.519Z,36.90
2022-12-09T01:13:27.619Z,38.67
2022-12-09T01:14:27.527Z,40.28
2022-12-09T01:15:27.493Z,43.51
2022-12-09T01:16:27.643Z,36.58
2022-12-09T01:17:27.547Z,36.25
2022-12-09T01:18:27.471Z,36.09
2022-12-09T01:19:27.524Z,37.06
2022-12-09T01:20:27.529Z,37.38
2022-12-09T01:21:27.454Z,38.83
2022-12-09T01:22:27.440Z,40.77
2022-12-09T01:23:27.442Z,38.67
2022-12-09T01:24:27.454Z,38.83
2022-12-09T01:25:27.419Z,37.71
2022-12-09T01:26:27.411Z,38.35
2022-12-09T01:27:27.675Z,44.31
2022-12-09T01:28:27.670Z,38.35
2022-12-09T01:29:27.638Z,38.35
2022-12-09T01:30:27.707Z,36.58
2022-12-09T01:31:27.513Z,35.93
2022-12-09T01:32:27.613Z,41.57
2022-12-09T01:33:27.512Z,36.74
2022-12-09T01:34:27.465Z,38.19
2022-12-09T01:35:27.340Z,43.99
2022-12-09T01:36:27.379Z,39.64
2022-12-09T01:37:27.633Z,36.25
2022-12-09T01:38:27.308Z,37.38
2022-12-09T01:39:27.327Z,36.58
2022-12-09T01:40:27.498Z,36.42
2022-12-09T01:41:27.478Z,37.71
2022-12-09T01:42:27.352Z,36.58
2022-12-09T01:43:27.394Z,36.42
2022-12-09T01:44:27.363Z,36.42
2022-12-09T01:45:27.253Z,38.67
2022-12-09T01:46:27.507Z,44.31
2022-12-09T01:47:27.372Z,40.28
2022-12-09T01:48:27.414Z,36.58
2022-12-09T01:49:27.596Z,36.25
2022-12-09T01:50:27.300Z,36.74
2022-12-09T01:51:27.375Z,38.67
2022-12-09T01:52:27.456Z,35.61
2022-12-09T01:53:27.193Z,35.93
2022-12-09T01:54:27.306Z,42.38
2022-12-09T01:55:27.220Z,37.22
2022-12-09T01:56:27.224Z,36.74
2022-12-09T01:57:27.470Z,37.87
2022-12-09T01:58:27.230Z,37.54
2022-12-09T01:59:27.204Z,37.06
2022-12-09T02:00:27.403Z,38.67
2022-12-09T02:01:27.216Z,40.28
2022-12-09T02:02:27.207Z,37.06
2022-12-09T02:03:27.208Z,44.96
2022-12-09T02:04:27.532Z,37.22
2022-12-09T02:05:27.534Z,36.58
2022-12-09T02:06:27.088Z,36.90
2022-12-09T02:07:27.202Z,36.58
2022-12-09T02:08:27.177Z,36.42
2022-12-09T02:09:27.172Z,37.87
2022-12-09T02:10:27.399Z,38.35
2022-12-09T02:11:27.172Z,38.35
2022-12-09T02:12:27.343Z,37.06
2022-12-09T02:13:27.030Z,36.42
2022-12-09T02:14:27.269Z,35.61
2022-12-09T02:15:27.256Z,35.93
2022-12-09T02:16:27.134Z,35.29
2022-12-09T02:17:27.105Z,40.77
2022-12-09T02:18:26.994Z,36.58
2022-12-09T02:19:27.313Z,44.79
2022-12-09T02:20:27.078Z,38.99
2022-12-09T02:21:27.228Z,37.54
2022-12-09T02:22:27.283Z,45.60
2022-12-09T02:23:26.957Z,48.50
2022-12-09T02:24:26.946Z,46.41
2022-12-09T02:25:27.123Z,49.47
2022-12-09T02:26:27.318Z,44.63
2022-12-09T02:27:26.957Z,37.06
2022-12-09T02:28:27.098Z,38.83
2022-12-09T02:29:27.035Z,53.66
2022-12-09T02:30:27.248Z,49.15
2022-12-09T02:31:27.317Z,45.28
2022-12-09T02:32:27.278Z,38.51
2022-12-09T02:33:26.947Z,37.54
2022-12-09T02:34:26.953Z,37.71
2022-12-09T02:35:26.893Z,36.58
2022-12-09T02:36:27.142Z,39.48
2022-12-09T02:37:26.904Z,38.51
2022-12-09T02:38:26.834Z,36.09
2022-12-09T02:39:27.120Z,37.87
2022-12-09T02:40:26.898Z,36.25
2022-12-09T02:41:26.903Z,35.93
2022-12-09T02:42:27.150Z,42.06
2022-12-09T02:43:26.853Z,35.77
2022-12-09T02:44:26.847Z,36.42
2022-12-09T02:45:26.855Z,45.60
2022-12-09T02:46:26.844Z,41.57
2022-12-09T02:47:26.830Z,36.74
2022-12-09T02:48:27.058Z,41.89
2022-12-09T02:49:26.844Z,40.28
2022-12-09T02:50:26.768Z,40.44
2022-12-09T02:51:26.771Z,38.51
2022-12-09T02:52:27.004Z,38.35
2022-12-09T02:53:26.719Z,37.87
2022-12-09T02:54:26.863Z,45.44
2022-12-09T02:55:26.759Z,37.54
2022-12-09T02:56:26.700Z,40.28
2022-12-09T02:57:26.965Z,40.28
2022-12-09T02:58:26.714Z,38.99
2022-12-09T02:59:27.825Z,36.25
2022-12-09T03:00:26.692Z,36.09
2022-12-09T03:01:26.747Z,37.22
2022-12-09T03:02:27.176Z,45.28
2022-12-09T03:03:26.789Z,45.44
2022-12-09T03:04:26.672Z,37.71
2022-12-09T03:05:26.649Z,37.38
2022-12-09T03:06:26.611Z,43.67
2022-12-09T03:07:26.762Z,38.19
2022-12-09T03:08:26.900Z,40.77
2022-12-09T03:09:26.789Z,43.18
2022-12-09T03:10:26.605Z,36.25
2022-12-09T03:11:26.697Z,36.09
2022-12-09T03:12:26.564Z,40.93
2022-12-09T03:13:26.732Z,41.09
2022-12-09T03:14:26.682Z,45.60
2022-12-09T03:15:26.570Z,38.83
2022-12-09T03:16:26.875Z,35.61
2022-12-09T03:17:26.621Z,43.18
2022-12-09T03:18:26.737Z,39.64
2022-12-09T03:19:26.663Z,38.83
2022-12-09T03:20:26.536Z,37.22
2022-12-09T03:21:26.494Z,48.98
2022-12-09T03:22:26.490Z,41.89
2022-12-09T03:23:26.812Z,39.64
2022-12-09T03:24:26.473Z,39.16
2022-12-09T03:25:26.486Z,37.71
2022-12-09T03:26:26.484Z,47.05
2022-12-09T03:27:26.557Z,41.57
2022-12-09T03:28:26.788Z,38.99
2022-12-09T03:29:26.429Z,41.73
2022-12-09T03:30:26.762Z,43.18
2022-12-09T03:31:26.486Z,45.92
2022-12-09T03:32:26.836Z,44.31
2022-12-09T03:33:26.521Z,41.73
2022-12-09T03:34:26.380Z,42.86
2022-12-09T03:35:26.619Z,41.73
2022-12-09T03:36:26.487Z,40.93
2022-12-09T03:37:26.666Z,42.06
2022-12-09T03:38:26.533Z,46.73
2022-12-09T03:39:26.343Z,53.01
2022-12-09T03:40:26.338Z,45.28
2022-12-09T03:41:26.411Z,44.47
2022-12-09T03:42:26.623Z,41.57
2022-12-09T03:43:26.317Z,52.05
2022-12-09T03:44:26.669Z,44.96
2022-12-09T03:45:26.296Z,49.63
2022-12-09T03:46:26.378Z,52.21
2022-12-09T03:47:26.795Z,48.66
2022-12-09T03:48:26.370Z,42.22
2022-12-09T03:49:26.519Z,42.38
2022-12-09T03:50:26.627Z,39.32
2022-12-09T03:51:26.298Z,39.96
2022-12-09T03:52:26.516Z,53.98
2022-12-09T03:53:26.271Z,50.60
2022-12-09T03:54:26.377Z,46.73
2022-12-09T03:55:26.440Z,46.41
2022-12-09T03:56:26.426Z,50.43
2022-12-09T03:57:26.210Z,55.27
2022-12-09T03:58:26.291Z,46.08
2022-12-09T03:59:26.262Z,53.66
2022-12-09T04:00:26.454Z,45.12
2022-12-09T04:01:26.324Z,43.02
2022-12-09T04:02:26.493Z,45.60
2022-12-09T04:03:26.603Z,53.17
2022-12-09T04:04:26.183Z,45.92
2022-12-09T04:05:26.438Z,43.51
2022-12-09T04:06:26.468Z,39.32
2022-12-09T04:07:26.130Z,41.09
2022-12-09T04:08:26.184Z,40.77
2022-12-09T04:09:26.136Z,46.73
2022-12-09T04:10:26.125Z,51.24
2022-12-09T04:11:26.126Z,48.50
2022-12-09T04:12:26.095Z,48.98
2022-12-09T04:13:26.219Z,46.25
2022-12-09T04:14:26.213Z,54.46
2022-12-09T04:15:26.069Z,46.73
2022-12-09T04:16:26.168Z,39.16
2022-12-09T04:17:26.400Z,50.92
2022-12-09T04:18:26.386Z,42.54
2022-12-09T04:19:26.041Z,47.37
2022-12-09T04:20:26.352Z,42.06
2022-12-09T04:21:26.058Z,47.37
2022-12-09T04:22:26.394Z,40.44
2022-12-09T04:23:26.166Z,42.06
2022-12-09T04:24:25.995Z,48.66
2022-12-09T04:25:26.226Z,45.44
2022-12-09T04:26:26.010Z,46.25
2022-12-09T04:27:25.975Z,48.18
2022-12-09T04:28:25.995Z,42.38
2022-12-09T04:29:26.010Z,43.02
2022-12-09T04:30:26.417Z,43.67
2022-12-09T04:31:25.998Z,53.33
2022-12-09T04:32:26.090Z,51.56
2022-12-09T04:33:26.037Z,45.12
2022-12-09T04:34:25.965Z,48.98
2022-12-09T04:35:25.909Z,49.63
2022-12-09T04:36:25.900Z,51.72
2022-12-09T04:37:25.916Z,46.41
2022-12-09T04:38:25.968Z,43.34
2022-12-09T04:39:25.972Z,51.88
2022-12-09T04:40:25.978Z,49.95
2022-12-09T04:41:25.883Z,51.72
2022-12-09T04:42:26.005Z,51.08
2022-12-09T04:43:25.855Z,50.76
2022-12-09T04:44:26.029Z,48.02
2022-12-09T04:45:25.869Z,49.95
2022-12-09T04:46:26.183Z,50.27
2022-12-09T04:47:26.281Z,53.82
2022-12-09T04:48:25.860Z,48.18
2022-12-09T04:49:26.166Z,50.27
2022-12-09T04:50:25.914Z,51.08
2022-12-09T04:51:26.054Z,43.99
2022-12-09T04:52:25.800Z,48.66
2022-12-09T04:53:25.762Z,42.70
2022-12-09T04:54:26.092Z,39.64
2022-12-09T04:55:25.773Z,47.86
2022-12-09T04:56:25.736Z,45.60
2022-12-09T04:57:25.763Z,45.12
2022-12-09T04:58:25.723Z,55.59
2022-12-09T04:59:25.714Z,45.28
2022-12-09T05:00:25.815Z,50.92
2022-12-09T05:01:30.635Z,53.82
2022-12-09T05:02:28.183Z,46.57
2022-12-09T05:03:26.132Z,52.37
2022-12-09T05:04:25.939Z,46.25
2022-12-09T05:05:25.767Z,48.18
2022-12-09T05:06:25.988Z,49.95
2022-12-09T05:07:26.089Z,54.79
2022-12-09T05:08:31.160Z,49.63
2022-12-09T05:09:27.925Z,49.79
2022-12-09T05:10:25.890Z,47.21
2022-12-09T05:11:26.026Z,49.79
2022-12-09T05:12:25.854Z,59.46
2022-12-09T05:13:25.815Z,57.04
2022-12-09T05:14:25.845Z,56.24
2022-12-09T05:15:25.792Z,62.52
2022-12-09T05:16:25.688Z,53.98
2022-12-09T05:17:25.697Z,54.46
2022-12-09T05:18:25.819Z,50.92
2022-12-09T05:19:25.810Z,60.26
2022-12-09T05:20:25.891Z,48.66
2022-12-09T05:21:25.807Z,50.92
2022-12-09T05:22:25.632Z,52.85
2022-12-09T05:23:25.599Z,55.11
2022-12-09T05:24:25.589Z,47.21
2022-12-09T05:25:25.554Z,55.75
2022-12-09T05:26:25.765Z,50.92
2022-12-09T05:27:25.566Z,47.05
2022-12-09T05:28:25.719Z,50.27
2022-12-09T05:29:25.528Z,56.24
2022-12-09T05:30:25.592Z,56.40
2022-12-09T05:31:25.542Z,58.65
2022-12-09T05:32:25.558Z,48.50
2022-12-09T05:33:25.877Z,49.95
2022-12-09T05:34:25.889Z,51.88
2022-12-09T05:35:25.704Z,60.42
2022-12-09T05:36:25.716Z,58.17
2022-12-09T05:37:25.723Z,58.49
2022-12-09T05:38:25.731Z,58.01
2022-12-09T05:39:25.689Z,51.72
2022-12-09T05:40:25.418Z,55.43
2022-12-09T05:41:25.734Z,57.85
2022-12-09T05:42:25.445Z,53.98
2022-12-09T05:43:25.450Z,53.66
2022-12-09T05:44:25.658Z,53.33
2022-12-09T05:45:25.694Z,57.04
2022-12-09T05:46:25.771Z,52.21
2022-12-09T05:47:25.569Z,60.26
2022-12-09T05:48:25.727Z,54.14
2022-12-09T05:49:25.500Z,63.97
2022-12-09T05:50:25.756Z,54.79
2022-12-09T05:51:25.487Z,54.95
2022-12-09T05:52:25.688Z,51.08
2022-12-09T05:53:25.365Z,52.53
2022-12-09T05:54:25.396Z,59.14
2022-12-09T05:55:25.781Z,56.24
2022-12-09T05:56:25.926Z,57.04
2022-12-09T05:57:25.661Z,57.20
2022-12-09T05:58:25.314Z,61.71
2022-12-09T05:59:25.463Z,56.88
2022-12-09T06:00:25.280Z,60.75
2022-12-09T06:01:25.728Z,58.65
2022-12-09T06:02:25.511Z,60.59
2022-12-09T06:03:25.646Z,57.36
2022-12-09T06:04:25.449Z,62.84
2022-12-09T06:05:25.606Z,61.71
2022-12-09T06:06:25.635Z,62.84
2022-12-09T06:07:25.446Z,55.11
2022-12-09T06:08:25.397Z,58.01
2022-12-09T06:09:25.652Z,55.11
2022-12-09T06:10:25.601Z,58.17
2022-12-09T06:11:25.801Z,61.55
2022-12-09T06:12:25.245Z,60.26
2022-12-09T06:13:25.221Z,58.17
2022-12-09T06:14:25.251Z,57.52
2022-12-09T06:15:31.249Z,61.39
2022-12-09T06:16:27.519Z,60.59
2022-12-09T06:17:25.474Z,60.26
2022-12-09T06:18:25.270Z,60.26
2022-12-09T06:19:25.384Z,59.62
2022-12-09T06:20:25.171Z,61.07
2022-12-09T06:21:25.249Z,59.46
2022-12-09T06:22:25.342Z,57.85
2022-12-09T06:23:25.332Z,56.88
2022-12-09T06:24:25.157Z,58.17
2022-12-09T06:25:25.451Z,56.07
2022-12-09T06:26:25.308Z,58.65
2022-12-09T06:27:25.261Z,50.27
2022-12-09T06:28:25.097Z,61.07
2022-12-09T06:29:25.186Z,54.79
2022-12-09T06:30:25.292Z,56.56
2022-12-09T06:31:25.199Z,60.10
2022-12-09T06:32:25.235Z,57.69
2022-12-09T06:33:52.915Z,51.40
2022-12-09T06:34:27.146Z,57.20
2022-12-09T06:35:25.479Z,53.82
2022-12-09T06:36:25.247Z,59.94
2022-12-09T06:37:25.232Z,61.07
2022-12-09T06:38:25.003Z,57.85
2022-12-09T06:39:25.172Z,59.14
2022-12-09T06:40:24.945Z,57.52
2022-12-09T06:41:25.380Z,64.45
2022-12-09T06:42:24.944Z,61.87
2022-12-09T06:43:25.304Z,55.91
2022-12-09T06:44:25.149Z,49.47
2022-12-09T06:45:25.294Z,55.27
2022-12-09T06:46:25.300Z,63.33
2022-12-09T06:47:25.021Z,59.94
2022-12-09T06:48:24.997Z,53.50
2022-12-09T06:49:24.993Z,56.88
2022-12-09T06:50:25.127Z,61.23
2022-12-09T06:51:25.360Z,61.39
2022-12-09T06:52:25.292Z,57.04
2022-12-09T06:53:25.956Z,57.52
2022-12-09T06:54:24.941Z,51.24
2022-12-09T06:55:24.919Z,58.01
2022-12-09T06:56:24.916Z,56.40
2022-12-09T06:57:25.025Z,55.27
2022-12-09T06:58:24.962Z,56.88
2022-12-09T06:59:25.326Z,62.36
2022-12-09T07:00:25.176Z,53.17
2022-12-09T07:01:25.104Z,53.66
2022-12-09T07:02:24.932Z,60.10
2022-12-09T07:03:25.404Z,56.56
2022-12-09T07:04:25.076Z,62.52
2022-12-09T07:05:25.191Z,56.72
2022-12-09T07:06:25.235Z,55.91
2022-12-09T07:07:24.773Z,53.82
2022-12-09T07:08:24.887Z,60.10
2022-12-09T07:09:24.965Z,59.30
2022-12-09T07:10:25.107Z,51.72
2022-12-09T07:11:25.020Z,52.05
2022-12-09T07:12:24.718Z,62.20
2022-12-09T07:13:24.831Z,61.39
2022-12-09T07:14:24.722Z,51.72
2022-12-09T07:15:24.721Z,59.94
2022-12-09T07:16:25.047Z,54.46
2022-12-09T07:17:24.821Z,49.47
2022-12-09T07:18:25.164Z,56.07
2022-12-09T07:19:24.875Z,54.62
2022-12-09T07:20:24.726Z,60.26
2022-12-09T07:21:24.803Z,54.79
2022-12-09T07:22:24.922Z,58.65
2022-12-09T07:23:24.854Z,51.88
2022-12-09T07:24:24.821Z,59.78
2022-12-09T07:25:25.038Z,60.75
2022-12-09T07:26:25.034Z,49.63
2022-12-09T07:27:24.649Z,54.14
2022-12-09T07:28:24.994Z,60.26
2022-12-09T07:29:24.706Z,60.59
2022-12-09T07:30:24.980Z,53.33
2022-12-09T07:31:25.200Z,53.33
2022-12-09T07:32:25.028Z,50.43
2022-12-09T07:33:24.917Z,56.40
2022-12-09T07:34:25.032Z,55.75
2022-12-09T07:35:24.957Z,53.50
2022-12-09T07:36:25.034Z,57.20
2022-12-09T07:37:24.529Z,52.69
2022-12-09T07:38:25.021Z,56.40
2022-12-09T07:39:24.709Z,53.01
2022-12-09T07:40:24.636Z,59.62
2022-12-09T07:41:24.605Z,62.52
2022-12-09T07:42:24.620Z,60.10
2022-12-09T07:43:24.852Z,61.07
2022-12-09T07:44:24.749Z,59.46
2022-12-09T07:45:24.824Z,58.81
2022-12-09T07:46:24.755Z,60.26
2022-12-09T07:47:24.802Z,57.69
2022-12-09T07:48:24.731Z,61.71
2022-12-09T07:49:24.903Z,61.55
2022-12-09T07:50:24.664Z,64.29
2022-12-09T07:51:24.623Z,59.62
2022-12-09T07:52:24.775Z,57.85
2022-12-09T07:53:24.445Z,60.59
2022-12-09T07:54:24.606Z,62.52
2022-12-09T07:55:24.639Z,60.91
2022-12-09T07:56:24.820Z,53.82
2022-12-09T07:57:24.465Z,56.40
2022-12-09T07:58:24.599Z,59.62
2022-12-09T07:59:24.732Z,56.56
2022-12-09T08:00:24.502Z,61.07
2022-12-09T08:01:24.565Z,56.88
2022-12-09T08:02:24.561Z,65.10
2022-12-09T08:03:24.748Z,55.43
2022-12-09T08:04:24.706Z,54.79
2022-12-09T08:05:24.611Z,55.91
2022-12-09T08:06:24.820Z,59.78
2022-12-09T08:07:24.745Z,57.20
2022-12-09T08:08:24.558Z,55.11
2022-12-09T08:09:24.652Z,57.36
2022-12-09T08:10:24.595Z,54.95
2022-12-09T08:11:24.593Z,55.43
2022-12-09T08:12:24.315Z,55.43
2022-12-09T08:13:24.357Z,58.01
2022-12-09T08:14:24.636Z,60.10
2022-12-09T08:15:24.415Z,53.98
2022-12-09T08:16:24.796Z,60.26
2022-12-09T08:17:24.576Z,52.21
2022-12-09T08:18:24.615Z,52.21
2022-12-09T08:19:24.649Z,54.79
2022-12-09T08:20:29.018Z,50.92
2022-12-09T08:21:26.277Z,54.79
2022-12-09T08:22:24.311Z,55.91
2022-12-09T08:23:24.301Z,56.72
2022-12-09T08:24:24.300Z,60.91
2022-12-09T08:25:24.446Z,51.88
2022-12-09T08:26:24.373Z,58.17
2022-12-09T08:27:24.199Z,53.17
2022-12-09T08:28:24.679Z,56.07
2022-12-09T08:29:24.404Z,56.24
2022-12-09T08:30:24.395Z,55.91
2022-12-09T08:31:24.760Z,56.72
2022-12-09T08:32:24.186Z,52.85
2022-12-09T08:33:24.552Z,59.30
2022-12-09T08:34:24.246Z,57.20
2022-12-09T08:35:24.377Z,57.36
2022-12-09T08:36:24.278Z,53.33
2022-12-09T08:37:24.179Z,55.11
2022-12-09T08:38:24.103Z,53.17
2022-12-09T08:39:24.065Z,58.81
2022-12-09T08:40:24.577Z,55.75
2022-12-09T08:41:24.472Z,57.36
2022-12-09T08:42:24.267Z,56.40
2022-12-09T08:43:24.132Z,56.24
2022-12-09T08:44:24.145Z,55.27
2022-12-09T08:45:24.249Z,54.79
2022-12-09T08:46:24.338Z,58.01
2022-12-09T08:47:24.113Z,53.50
2022-12-09T08:48:24.601Z,53.82
2022-12-09T08:49:24.305Z,57.36
2022-12-09T08:50:24.316Z,49.79
2022-12-09T08:51:24.297Z,61.07
2022-12-09T08:52:24.010Z,57.85
2022-12-09T08:53:24.059Z,55.75
2022-12-09T08:54:24.262Z,52.37
2022-12-09T08:55:24.052Z,58.81
2022-12-09T08:56:23.999Z,57.36
2022-12-09T08:57:24.270Z,59.14
2022-12-09T08:58:24.352Z,52.05
2022-12-09T08:59:23.930Z,50.27
2022-12-09T09:00:24.277Z,49.15
2022-12-09T09:01:24.291Z,47.70
2022-12-09T09:02:24.450Z,52.21
2022-12-09T09:03:24.470Z,57.52
2022-12-09T09:04:24.229Z,59.46
2022-12-09T09:05:24.077Z,60.75
2022-12-09T09:06:24.198Z,55.91
2022-12-09T09:07:24.030Z,58.81
2022-12-09T09:08:24.355Z,54.95
2022-12-09T09:09:24.425Z,58.81
2022-12-09T09:10:24.099Z,54.62
2022-12-09T09:11:24.146Z,50.43
2022-12-09T09:12:24.102Z,61.87
2022-12-09T09:13:23.836Z,57.36
2022-12-09T09:14:24.311Z,61.23
2022-12-09T09:15:23.920Z,53.33
2022-12-09T09:16:24.044Z,58.33
2022-12-09T09:17:24.159Z,57.85
2022-12-09T09:18:23.839Z,58.65
2022-12-09T09:19:24.208Z,52.53
2022-12-09T09:20:24.114Z,54.79
2022-12-09T09:21:24.218Z,57.85
2022-12-09T09:22:24.200Z,53.98
2022-12-09T09:23:24.186Z,54.79
2022-12-09T09:24:23.859Z,54.79
2022-12-09T09:25:23.716Z,56.88
2022-12-09T09:26:23.808Z,58.01
2022-12-09T09:27:23.757Z,55.11
2022-12-09T09:28:28.923Z,61.55
2022-12-09T09:29:25.782Z,60.10
2022-12-09T09:30:23.857Z,63.65
2022-12-09T09:31:24.084Z,57.04
2022-12-09T09:32:24.083Z,58.49
2022-12-09T09:33:24.164Z,57.85
2022-12-09T09:34:24.067Z,55.27
2022-12-09T09:35:24.012Z,56.40
2022-12-09T09:36:23.841Z,57.52
2022-12-09T09:37:23.858Z,49.95
2022-12-09T09:38:23.774Z,51.24
2022-12-09T09:39:24.020Z,53.33
2022-12-09T09:40:24.147Z,54.14
2022-12-09T09:41:23.968Z,57.85
2022-12-09T09:42:23.634Z,53.98
2022-12-09T09:43:23.755Z,55.75
2022-12-09T09:44:24.794Z,61.39
2022-12-09T09:45:23.605Z,57.04
2022-12-09T09:46:23.782Z,58.33
2022-12-09T09:47:24.167Z,57.20
2022-12-09T09:48:23.879Z,57.69
2022-12-09T09:49:23.861Z,52.69
2022-12-09T09:50:24.154Z,57.04
2022-12-09T09:51:23.655Z,61.87
2022-12-09T09:52:23.945Z,60.26
2022-12-09T09:53:23.536Z,52.53
2022-12-09T09:54:23.569Z,57.85
2022-12-09T09:55:23.886Z,56.24
2022-12-09T09:56:23.492Z,61.07
2022-12-09T09:57:23.517Z,54.14
2022-12-09T09:58:23.874Z,58.65
2022-12-09T09:59:23.823Z,59.94
2022-12-09T10:00:24.656Z,59.62
2022-12-09T10:01:23.939Z,61.87
2022-12-09T10:02:24.048Z,60.75
2022-12-09T10:03:24.104Z,57.69
2022-12-09T10:04:23.745Z,61.71
2022-12-09T10:05:24.050Z,60.75
2022-12-09T10:06:23.953Z,59.62
2022-12-09T10:07:23.995Z,58.33
2022-12-09T10:08:23.882Z,57.20
2022-12-09T10:09:23.875Z,59.14
2022-12-09T10:10:23.954Z,54.14
2022-12-09T10:11:23.785Z,62.84
2022-12-09T10:12:23.661Z,62.20
2022-12-09T10:13:24.037Z,57.36
2022-12-09T10:14:23.590Z,55.59
2022-12-09T10:15:23.498Z,58.01
2022-12-09T10:16:23.872Z,56.56
2022-12-09T10:17:23.514Z,60.75
2022-12-09T10:18:23.545Z,55.43
2022-12-09T10:19:23.647Z,58.17
2022-12-09T10:20:23.549Z,54.46
2022-12-09T10:21:23.295Z,56.56
2022-12-09T10:22:23.858Z,59.78
2022-12-09T10:23:23.538Z,56.40
2022-12-09T10:24:23.432Z,51.24
2022-12-09T10:25:23.839Z,51.72
2022-12-09T10:26:23.757Z,60.26
2022-12-09T10:27:23.278Z,57.52
2022-12-09T10:28:23.828Z,60.26
2022-12-09T10:29:23.327Z,59.94
2022-12-09T10:30:23.429Z,50.43
2022-12-09T10:31:23.545Z,48.98
2022-12-09T10:32:23.308Z,57.36
2022-12-09T10:33:23.373Z,58.97
2022-12-09T10:34:23.838Z,55.91
2022-12-09T10:35:23.792Z,57.04
2022-12-09T10:36:23.417Z,58.33
2022-12-09T10:37:23.585Z,57.04
2022-12-09T10:38:23.574Z,61.23
2022-12-09T10:39:23.506Z,57.04
2022-12-09T10:40:23.318Z,59.94
2022-12-09T10:41:23.136Z,53.98
2022-12-09T10:42:23.341Z,56.07
2022-12-09T10:43:23.474Z,56.56
2022-12-09T10:44:23.219Z,55.75
2022-12-09T10:45:23.211Z,57.69
2022-12-09T10:46:23.442Z,62.20
2022-12-09T10:47:23.254Z,61.39
2022-12-09T10:48:25.550Z,55.75
2022-12-09T10:49:23.182Z,59.78
2022-12-09T10:50:23.485Z,60.26
2022-12-09T10:51:23.248Z,58.49
2022-12-09T10:52:23.101Z,61.07
2022-12-09T10:53:23.383Z,57.69
2022-12-09T10:54:23.098Z,60.91
2022-12-09T10:55:23.030Z,62.20
2022-12-09T10:56:23.467Z,63.33
2022-12-09T10:57:23.397Z,61.55
2022-12-09T10:58:23.119Z,54.62
2022-12-09T10:59:23.278Z,59.78
2022-12-09T11:00:23.299Z,53.17
2022-12-09T11:01:23.037Z,58.17
2022-12-09T11:02:23.079Z,57.69
2022-12-09T11:03:23.198Z,64.13
2022-12-09T11:04:23.027Z,61.39
2022-12-09T11:05:23.130Z,56.56
2022-12-09T11:06:23.400Z,59.78
2022-12-09T11:07:23.170Z,59.30
2022-12-09T11:08:23.227Z,59.46
2022-12-09T11:09:23.445Z,57.36
2022-12-09T11:10:25.085Z,59.14
2022-12-09T11:11:23.360Z,60.75
2022-12-09T11:12:22.915Z,63.16
2022-12-09T11:13:23.918Z,60.91
2022-12-09T11:14:23.287Z,59.62
2022-12-09T11:15:23.290Z,59.78
2022-12-09T11:16:23.033Z,58.33
2022-12-09T11:17:23.326Z,56.88
2022-12-09T11:18:23.061Z,59.30
2022-12-09T11:19:23.115Z,53.50
2022-12-09T11:20:23.425Z,58.49
2022-12-09T11:21:22.844Z,59.94
2022-12-09T11:22:23.090Z,58.49
2022-12-09T11:23:23.096Z,60.26
2022-12-09T11:24:23.147Z,55.27
2022-12-09T11:25:22.978Z,55.11
2022-12-09T11:26:23.119Z,55.43
2022-12-09T11:27:23.028Z,54.95
2022-12-09T11:28:23.083Z,61.55
2022-12-09T11:29:22.866Z,51.24
2022-12-09T11:30:23.457Z,52.53
2022-12-09T11:31:32.783Z,59.30
2022-12-09T11:32:24.849Z,63.65
2022-12-09T11:33:22.863Z,63.65
2022-12-09T11:34:23.044Z,59.94
2022-12-09T11:35:23.131Z,60.10
2022-12-09T11:36:22.657Z,60.75
2022-12-09T11:37:22.646Z,60.75
2022-12-09T11:38:22.643Z,61.55
2022-12-09T11:39:23.629Z,61.07
2022-12-09T11:40:22.659Z,59.46
2022-12-09T11:41:22.616Z,58.65
2022-12-09T11:42:23.623Z,60.26
2022-12-09T11:43:22.604Z,54.30
2022-12-09T11:44:22.593Z,58.65
2022-12-09T11:45:22.587Z,60.42
2022-12-09T11:46:22.667Z,59.14
2022-12-09T11:47:22.566Z,62.84
2022-12-09T11:48:29.905Z,61.07
2022-12-09T11:49:24.554Z,58.97
2022-12-09T11:50:22.608Z,59.30
2022-12-09T11:51:22.559Z,56.07
2022-12-09T11:52:22.530Z,61.39
2022-12-09T11:53:22.526Z,59.62
2022-12-09T11:54:22.523Z,58.81
2022-12-09T11:55:22.533Z,56.40
2022-12-09T11:56:22.496Z,62.52
2022-12-09T11:57:22.487Z,61.23
2022-12-09T11:58:22.483Z,58.97
2022-12-09T11:59:22.473Z,60.26
2022-12-09T12:00:22.488Z,56.88
2022-12-09T12:01:22.456Z,61.87
2022-12-09T12:02:22.508Z,52.53
2022-12-09T12:03:22.469Z,58.65
2022-12-09T12:04:22.435Z,61.55
2022-12-09T12:05:22.456Z,62.20
2022-12-09T12:06:22.418Z,63.33
2022-12-09T12:07:22.409Z,58.49
2022-12-09T12:08:22.546Z,53.66
2022-12-09T12:09:22.395Z,59.78
2022-12-09T12:10:22.412Z,58.01
2022-12-09T12:11:22.378Z,61.39
2022-12-09T12:12:22.367Z,56.56
2022-12-09T12:13:22.363Z,58.81
2022-12-09T12:14:22.353Z,60.42
2022-12-09T12:15:22.376Z,58.17
2022-12-09T12:16:22.339Z,62.04
2022-12-09T12:17:22.398Z,51.88
2022-12-09T12:18:22.325Z,58.97
2022-12-09T12:19:22.315Z,60.42
2022-12-09T12:20:22.340Z,62.52
2022-12-09T12:21:22.302Z,62.52
2022-12-09T12:22:22.293Z,60.26
2022-12-09T12:23:22.285Z,59.62
2022-12-09T12:24:22.279Z,63.16
2022-12-09T12:25:22.299Z,60.42
2022-12-09T12:26:22.259Z,61.87
2022-12-09T12:27:22.253Z,58.65
2022-12-09T12:28:22.247Z,53.17
2022-12-09T12:29:22.237Z,54.95
2022-12-09T12:30:22.299Z,57.69
2022-12-09T12:31:22.266Z,64.13
2022-12-09T12:32:22.215Z,57.52
2022-12-09T12:34:24.477Z,58.01
2022-12-09T12:34:25.284Z,62.36
2022-12-09T12:35:23.221Z,62.04
2022-12-09T12:36:22.180Z,63.16
2022-12-09T12:37:22.172Z,63.00
2022-12-09T12:38:22.166Z,62.84
2022-12-09T12:39:22.159Z,61.71
2022-12-09T12:40:26.796Z,58.17
2022-12-09T12:41:24.145Z,62.68
2022-12-09T12:42:22.135Z,63.81
2022-12-09T12:43:22.128Z,58.49
2022-12-09T12:44:22.120Z,59.46
2022-12-09T12:45:22.109Z,60.91
2022-12-09T12:46:22.167Z,64.13
2022-12-09T12:47:22.099Z,64.13
2022-12-09T12:48:22.096Z,58.97
2022-12-09T12:49:22.076Z,59.14
2022-12-09T12:50:22.070Z,59.46
2022-12-09T12:51:22.089Z,60.75
2022-12-09T12:52:53.793Z,57.69